Time;durP1;ratioP1;P1;durP2;ratioP2;P2;SDS_P1;SDS_P2;PMS_P1;PMS_P2;Temp;Humidity;BMP_temperature;BMP_pressure;BME280_temperature;BME280_humidity;BME280_pressure;Samples;Min_cycle;Max_cycle;Signal;HPM_P1;HPM_P2
2022/12/20 00:01:43;;;;;;;;;;;8.40;99.90;;;;;;4969815;28;1149;-63
2022/12/20 00:04:09;;;;;;;;;;;8.30;99.90;;;;;;4958444;28;1368;-62
2022/12/20 00:06:35;;;;;;;;;;;8.30;99.90;;;;;;4963333;28;1156;-62
2022/12/20 00:09:02;;;;;;;;;;;8.40;99.90;;;;;;4971012;28;1127;-62
2022/12/20 00:11:28;;;;;;;;;;;8.40;99.90;;;;;;4971334;28;1150;-63
2022/12/20 00:13:54;;;;;;;;;;;8.40;99.90;;;;;;4950055;28;1251;-62
2022/12/20 00:16:21;;;;;;;;;;;8.40;99.90;;;;;;4961918;28;2355;-63
2022/12/20 00:18:49;;;;;;;;;;;8.40;99.90;;;;;;4952065;29;1139;-62
2022/12/20 00:21:15;;;;;;;;;;;8.40;99.90;;;;;;4950493;28;1889;-62
2022/12/20 00:23:41;;;;;;;;;;;8.30;99.90;;;;;;4959837;28;1166;-63
2022/12/20 00:26:08;;;;;;;;;;;8.20;99.90;;;;;;4951895;28;1206;-62
2022/12/20 00:28:34;;;;;;;;;;;8.10;99.90;;;;;;4950910;29;1124;-63
2022/12/20 00:31:01;;;;;;;;;;;8.10;99.90;;;;;;4951784;29;1045;-62
2022/12/20 00:33:26;;;;;;;;;;;8.10;99.90;;;;;;4957841;28;1136;-62
2022/12/20 00:35:53;;;;;;;;;;;8.10;99.90;;;;;;4969057;28;1911;-62
2022/12/20 00:38:19;;;;;;;;;;;8.20;99.90;;;;;;4959769;28;1338;-62
2022/12/20 00:40:45;;;;;;;;;;;8.20;99.90;;;;;;4950642;28;1151;-63
2022/12/20 00:43:11;;;;;;;;;;;8.30;99.90;;;;;;4951444;29;1131;-62
2022/12/20 00:45:37;;;;;;;;;;;8.30;99.90;;;;;;4951185;28;1140;-63
2022/12/20 00:48:04;;;;;;;;;;;8.40;99.90;;;;;;4941251;29;1255;-62
2022/12/20 00:50:29;;;;;;;;;;;8.40;99.90;;;;;;4951981;28;1286;-63
2022/12/20 00:52:55;;;;;;;;;;;8.40;99.90;;;;;;4952175;28;1639;-63
2022/12/20 00:55:21;;;;;;;;;;;8.50;99.90;;;;;;4950155;29;1227;-62
2022/12/20 00:57:46;;;;;;;;;;;8.50;99.90;;;;;;4952068;28;1974;-62
2022/12/20 01:00:12;;;;;;;;;;;8.50;99.90;;;;;;4952182;28;1121;-62
2022/12/20 01:02:38;;;;;;;;;;;8.60;99.90;;;;;;4968905;28;1314;-63
2022/12/20 01:05:05;;;;;;;;;;;8.60;99.90;;;;;;4951516;29;1080;-62
2022/12/20 01:07:31;;;;;;;;;;;8.70;99.90;;;;;;4950689;28;1096;-62
2022/12/20 01:09:57;;;;;;;;;;;8.80;99.90;;;;;;4930602;29;1088;-62
2022/12/20 01:12:23;;;;;;;;;;;8.70;99.90;;;;;;4951449;29;1084;-62
2022/12/20 01:14:49;;;;;;;;;;;8.90;99.90;;;;;;4951471;29;1151;-62
2022/12/20 01:17:14;;;;;;;;;;;9.00;99.90;;;;;;4948165;28;1915;-62
2022/12/20 01:19:40;;;;;;;;;;;9.10;99.90;;;;;;4951228;29;1131;-62
2022/12/20 01:22:06;;;;;;;;;;;9.20;99.90;;;;;;4951268;29;1167;-62
2022/12/20 01:24:31;;;;;;;;;;;9.00;99.90;;;;;;4920788;28;1866;-63
2022/12/20 01:26:57;;;;;;;;;;;9.10;99.90;;;;;;4957703;29;1104;-63
2022/12/20 01:29:23;;;;;;;;;;;9.00;99.90;;;;;;4957838;28;1036;-62
2022/12/20 01:31:48;;;;;;;;;;;9.00;99.90;;;;;;4956673;28;1102;-63
2022/12/20 01:34:14;;;;;;;;;;;8.90;99.90;;;;;;4957369;28;957;-63
2022/12/20 01:36:41;;;;;;;;;;;9.00;99.90;;;;;;4957546;28;1906;-63
2022/12/20 01:39:08;;;;;;;;;;;9.00;99.90;;;;;;4956038;28;1645;-63
2022/12/20 01:41:34;;;;;;;;;;;9.00;99.90;;;;;;4940045;29;1160;-63
2022/12/20 01:44:01;;;;;;;;;;;9.00;99.90;;;;;;4969668;28;1154;-62
2022/12/20 01:46:28;;;;;;;;;;;9.00;99.90;;;;;;4957042;29;1176;-63
2022/12/20 01:49:04;;;;;;;;;;;9.00;99.90;;;;;;4956797;28;1116;-63
2022/12/20 01:51:31;;;;;;;;;;;9.00;99.90;;;;;;4943512;29;1326;-63
2022/12/20 01:54:01;;;;;;;;;;;9.00;99.90;;;;;;4957964;28;1322;-63
2022/12/20 01:56:27;;;;;;;;;;;9.00;99.90;;;;;;4947972;29;1915;-63
2022/12/20 01:58:53;;;;;;;;;;;9.00;99.90;;;;;;4948260;28;1298;-63
2022/12/20 02:01:21;;;;;;;;;;;9.00;99.90;;;;;;4956331;28;1238;-63
2022/12/20 02:03:47;;;;;;;;;;;9.10;99.90;;;;;;4957423;28;1373;-63
2022/12/20 02:06:20;;;;;;;;;;;9.00;99.90;;;;;;4956101;28;1301;-63
2022/12/20 02:08:47;;;;;;;;;;;8.90;99.90;;;;;;4956848;28;1219;-63
2022/12/20 02:11:21;;;;;;;;;;;9.00;99.90;;;;;;4947795;29;1294;-63
2022/12/20 02:14:10;;;;;;;;;;;9.00;99.90;;;;;;4942364;29;1270;-63
2022/12/20 02:16:56;;;;;;;;;;;9.00;99.90;;;;;;4955629;28;1914;-63
2022/12/20 02:19:27;;;;;;;;;;;9.10;99.90;;;;;;4956847;28;1310;-63
2022/12/20 02:21:58;;;;;;;;;;;9.00;99.90;;;;;;4955684;28;1108;-63
2022/12/20 02:24:36;;;;;;;;;;;9.00;99.90;;;;;;4959180;28;1214;-63
2022/12/20 02:27:13;;;;;;;;;;;9.00;99.90;;;;;;4955467;28;1243;-63
2022/12/20 02:29:54;;;;;;;;;;;9.10;99.90;;;;;;4959413;28;1328;-63
2022/12/20 02:32:23;;;;;;;;;;;9.00;99.90;;;;;;4959070;28;1135;-62
2022/12/20 02:34:49;;;;;;;;;;;9.00;99.90;;;;;;4975088;28;1115;-63
2022/12/20 02:37:15;;;;;;;;;;;9.00;99.90;;;;;;4947067;28;1918;-63
2022/12/20 02:39:43;;;;;;;;;;;8.90;99.90;;;;;;4936235;29;1320;-63
2022/12/20 02:42:11;;;;;;;;;;;8.90;99.90;;;;;;4953201;29;1157;-62
2022/12/20 02:47:29;;;;;;;;;;;8.90;99.90;;;;;;4952893;29;1155;-63
2022/12/20 02:49:55;;;;;;;;;;;9.00;99.90;;;;;;4936607;29;1100;-63
2022/12/20 02:52:25;;;;;;;;;;;9.00;99.90;;;;;;4960494;28;1437;-63
2022/12/20 02:54:52;;;;;;;;;;;9.00;99.90;;;;;;4944722;28;1157;-62
2022/12/20 02:57:21;;;;;;;;;;;9.00;99.90;;;;;;4971466;28;1906;-63
2022/12/20 02:59:54;;;;;;;;;;;9.00;99.90;;;;;;4939399;28;1092;-63
2022/12/20 03:02:19;;;;;;;;;;;9.00;99.90;;;;;;4965899;28;1170;-62
2022/12/20 03:04:46;;;;;;;;;;;9.10;99.90;;;;;;4936095;29;1605;-63
2022/12/20 03:07:12;;;;;;;;;;;9.10;99.90;;;;;;4935596;29;1144;-63
2022/12/20 03:09:40;;;;;;;;;;;9.10;99.90;;;;;;4935531;29;1160;-63
2022/12/20 03:12:06;;;;;;;;;;;9.10;99.90;;;;;;4935625;29;1094;-63
2022/12/20 03:14:34;;;;;;;;;;;9.10;99.90;;;;;;4935960;29;1100;-63
2022/12/20 03:17:04;;;;;;;;;;;9.10;99.90;;;;;;4936174;29;1981;-63
2022/12/20 03:19:29;;;;;;;;;;;9.00;99.90;;;;;;4944463;29;1274;-63
2022/12/20 03:21:56;;;;;;;;;;;8.80;99.90;;;;;;4940432;29;1067;-63
2022/12/20 03:24:22;;;;;;;;;;;8.70;99.90;;;;;;4959049;28;1309;-63
2022/12/20 03:26:49;;;;;;;;;;;8.50;99.90;;;;;;4943834;28;1184;-63
2022/12/20 03:29:18;;;;;;;;;;;8.40;99.90;;;;;;4939562;29;1248;-63
2022/12/20 03:31:43;;;;;;;;;;;8.40;99.90;;;;;;4952941;28;1147;-63
2022/12/20 03:34:09;;;;;;;;;;;8.40;99.90;;;;;;4944075;29;1247;-63
2022/12/20 03:36:36;;;;;;;;;;;8.40;99.90;;;;;;4939994;29;1907;-63
2022/12/20 03:39:04;;;;;;;;;;;8.40;99.90;;;;;;4954329;28;1298;-63
2022/12/20 03:41:34;;;;;;;;;;;8.40;99.90;;;;;;4943012;29;1302;-63
2022/12/20 03:44:00;;;;;;;;;;;8.30;99.90;;;;;;4956832;28;1310;-63
2022/12/20 03:46:26;;;;;;;;;;;8.40;99.90;;;;;;4954042;28;1234;-63
2022/12/20 03:48:52;;;;;;;;;;;8.30;99.90;;;;;;4943172;28;1203;-63
2022/12/20 03:51:18;;;;;;;;;;;8.30;99.90;;;;;;4954349;28;1355;-63
2022/12/20 03:53:44;;;;;;;;;;;8.30;99.90;;;;;;4943829;28;1408;-63
2022/12/20 03:56:10;;;;;;;;;;;8.30;99.90;;;;;;4954213;28;1985;-63
2022/12/20 03:58:38;;;;;;;;;;;8.20;99.90;;;;;;4942172;28;1293;-63
2022/12/20 04:01:15;;;;;;;;;;;8.20;99.90;;;;;;4957773;28;1289;-63
2022/12/20 04:03:42;;;;;;;;;;;8.20;99.90;;;;;;4937442;28;1354;-63
2022/12/20 04:06:08;;;;;;;;;;;8.20;99.90;;;;;;4939994;29;1318;-63
2022/12/20 04:08:34;;;;;;;;;;;8.20;99.90;;;;;;4953482;28;1309;-63
2022/12/20 04:11:15;;;;;;;;;;;8.20;99.90;;;;;;4951882;29;1222;-63
2022/12/20 04:13:46;;;;;;;;;;;8.20;99.90;;;;;;4922744;29;1149;-63
2022/12/20 04:16:13;;;;;;;;;;;8.10;99.90;;;;;;4942450;29;1912;-63
2022/12/20 04:18:40;;;;;;;;;;;8.10;99.90;;;;;;4941547;29;1127;-63
2022/12/20 04:21:07;;;;;;;;;;;8.20;99.90;;;;;;4941580;29;1208;-63
2022/12/20 04:23:34;;;;;;;;;;;8.20;99.90;;;;;;4941449;29;1169;-63
2022/12/20 04:26:00;;;;;;;;;;;8.10;99.90;;;;;;4943370;29;1317;-63
2022/12/20 04:28:28;;;;;;;;;;;8.20;99.90;;;;;;4941816;29;1583;-63
2022/12/20 04:30:55;;;;;;;;;;;8.20;99.90;;;;;;4940262;29;1286;-63
2022/12/20 04:33:24;;;;;;;;;;;8.20;99.90;;;;;;4924012;29;1401;-63
2022/12/20 04:35:50;;;;;;;;;;;8.20;99.90;;;;;;4942163;28;1295;-62
2022/12/20 04:38:17;;;;;;;;;;;8.20;99.90;;;;;;4925196;29;1911;-63
2022/12/20 04:40:43;;;;;;;;;;;8.20;99.90;;;;;;4956010;28;1138;-63
2022/12/20 04:43:09;;;;;;;;;;;8.30;99.90;;;;;;4941032;29;1290;-63
2022/12/20 04:45:35;;;;;;;;;;;8.30;99.90;;;;;;4942178;28;1373;-63
2022/12/20 04:48:02;;;;;;;;;;;8.30;99.90;;;;;;4940836;28;1357;-63
2022/12/20 04:50:34;;;;;;;;;;;8.40;99.90;;;;;;4941399;28;1258;-63
2022/12/20 04:55:44;;;;;;;;;;;8.40;99.90;;;;;;4950240;28;1215;-62
2022/12/20 04:58:10;;;;;;;;;;;8.50;99.90;;;;;;4949734;28;1902;-62
2022/12/20 05:00:38;;;;;;;;;;;8.50;99.90;;;;;;4941480;29;1245;-63
2022/12/20 05:03:21;;;;;;;;;;;8.50;99.90;;;;;;4943410;29;1296;-63
2022/12/20 05:05:46;;;;;;;;;;;8.60;99.90;;;;;;4921396;29;1249;-63
2022/12/20 05:08:12;;;;;;;;;;;8.50;99.90;;;;;;4934158;29;1223;-63
2022/12/20 05:10:38;;;;;;;;;;;8.60;99.90;;;;;;4931167;29;1191;-64
2022/12/20 05:13:05;;;;;;;;;;;8.60;99.90;;;;;;4947363;29;1262;-62
2022/12/20 05:15:36;;;;;;;;;;;8.60;99.90;;;;;;4930234;29;1215;-63
2022/12/20 05:18:02;;;;;;;;;;;8.60;99.90;;;;;;4946689;29;1914;-63
2022/12/20 05:20:38;;;;;;;;;;;8.60;99.90;;;;;;4950198;28;1202;-63
2022/12/20 05:28:37;;;;;;;;;;;8.80;99.90;;;;;;4927941;29;1192;-63
2022/12/20 05:31:04;;;;;;;;;;;8.80;99.90;;;;;;4932788;29;1214;-63
2022/12/20 05:33:33;;;;;;;;;;;8.80;99.90;;;;;;4936946;29;1116;-63
2022/12/20 05:35:59;;;;;;;;;;;8.90;99.90;;;;;;4934656;29;1225;-63
2022/12/20 05:38:25;;;;;;;;;;;8.90;99.90;;;;;;4929394;29;1982;-62
2022/12/20 05:40:51;;;;;;;;;;;9.00;99.90;;;;;;4948317;28;1151;-63
2022/12/20 05:43:18;;;;;;;;;;;9.00;99.90;;;;;;4933077;29;1290;-63
2022/12/20 05:45:46;;;;;;;;;;;8.90;99.90;;;;;;4930519;29;1215;-63
2022/12/20 05:48:14;;;;;;;;;;;8.90;99.90;;;;;;4932010;29;1215;-63
2022/12/20 05:50:43;;;;;;;;;;;9.00;99.90;;;;;;4931598;29;1215;-63
2022/12/20 05:53:25;;;;;;;;;;;9.00;99.90;;;;;;4929360;29;1316;-63
2022/12/20 05:55:54;;;;;;;;;;;9.10;99.90;;;;;;4916316;29;1195;-63
2022/12/20 05:58:24;;;;;;;;;;;9.10;99.90;;;;;;4930392;29;1918;-63
2022/12/20 06:00:58;;;;;;;;;;;9.20;99.90;;;;;;4930186;29;1199;-63
2022/12/20 06:03:24;;;;;;;;;;;9.20;99.90;;;;;;4931904;29;1544;-63
2022/12/20 06:05:50;;;;;;;;;;;9.30;99.90;;;;;;4948504;28;1140;-63
2022/12/20 06:08:23;;;;;;;;;;;9.30;99.90;;;;;;4945148;28;1076;-63
2022/12/20 06:10:50;;;;;;;;;;;9.30;99.90;;;;;;4921166;29;1239;-63
2022/12/20 06:13:17;;;;;;;;;;;9.30;99.90;;;;;;4941246;29;1210;-63
2022/12/20 06:15:42;;;;;;;;;;;9.30;99.90;;;;;;4944691;29;1241;-63
2022/12/20 06:18:08;;;;;;;;;;;9.30;99.90;;;;;;4942870;29;1919;-63
2022/12/20 06:20:34;;;;;;;;;;;9.30;99.90;;;;;;4938270;29;1322;-63
2022/12/20 06:23:02;;;;;;;;;;;9.30;99.90;;;;;;4935089;29;1227;-63
2022/12/20 06:25:33;;;;;;;;;;;9.30;99.90;;;;;;4933714;29;1282;-63
2022/12/20 06:27:59;;;;;;;;;;;9.30;99.90;;;;;;4951467;28;1233;-63
2022/12/20 06:30:25;;;;;;;;;;;9.30;99.90;;;;;;4933810;29;1220;-63
2022/12/20 06:33:00;;;;;;;;;;;9.40;99.90;;;;;;4948066;28;1167;-63
2022/12/20 06:35:26;;;;;;;;;;;9.40;99.90;;;;;;4933916;29;1227;-63
2022/12/20 06:37:55;;;;;;;;;;;9.50;99.90;;;;;;4936524;29;1919;-63
2022/12/20 06:40:21;;;;;;;;;;;9.50;99.90;;;;;;4918338;29;1290;-63
2022/12/20 06:42:47;;;;;;;;;;;9.50;99.90;;;;;;4934739;29;1290;-63
2022/12/20 06:45:13;;;;;;;;;;;9.50;99.90;;;;;;4935613;29;1306;-63
2022/12/20 06:47:39;;;;;;;;;;;9.50;99.90;;;;;;4935402;29;1227;-63
2022/12/20 06:50:05;;;;;;;;;;;9.60;99.90;;;;;;4943321;29;1233;-63
2022/12/20 06:52:31;;;;;;;;;;;9.60;99.90;;;;;;4937694;29;1302;-63
2022/12/20 06:54:57;;;;;;;;;;;9.60;99.90;;;;;;4934634;29;1215;-63
2022/12/20 06:57:23;;;;;;;;;;;9.60;99.90;;;;;;4934674;29;1993;-63
2022/12/20 06:59:50;;;;;;;;;;;9.60;99.90;;;;;;4935343;29;1231;-63
2022/12/20 07:02:16;;;;;;;;;;;9.60;99.90;;;;;;4939067;29;1313;-63
2022/12/20 07:04:42;;;;;;;;;;;9.70;99.90;;;;;;4934852;29;2031;-63
2022/12/20 07:07:07;;;;;;;;;;;9.70;99.90;;;;;;4952524;28;1562;-63
2022/12/20 07:09:33;;;;;;;;;;;9.70;99.90;;;;;;4952071;28;1200;-64
2022/12/20 07:11:59;;;;;;;;;;;9.70;99.90;;;;;;4953536;28;1179;-64
2022/12/20 07:14:24;;;;;;;;;;;9.70;99.90;;;;;;4959065;28;1202;-63
2022/12/20 07:16:50;;;;;;;;;;;9.70;99.90;;;;;;4956128;28;1970;-63
2022/12/20 07:19:16;;;;;;;;;;;9.70;99.90;;;;;;4954699;28;1265;-63
2022/12/20 07:21:42;;;;;;;;;;;9.60;99.90;;;;;;4951188;28;1226;-63
2022/12/20 07:24:08;;;;;;;;;;;9.40;99.90;;;;;;4953041;28;1218;-63
2022/12/20 07:26:34;;;;;;;;;;;9.30;99.90;;;;;;4935387;29;1164;-64
2022/12/20 07:29:00;;;;;;;;;;;9.20;99.90;;;;;;4952172;28;1184;-63
2022/12/20 07:31:25;;;;;;;;;;;9.10;99.90;;;;;;4970387;28;1217;-63
2022/12/20 07:33:51;;;;;;;;;;;9.20;99.90;;;;;;4972068;28;1120;-63
2022/12/20 07:36:17;;;;;;;;;;;9.10;99.90;;;;;;4965119;28;1977;-63
2022/12/20 07:38:42;;;;;;;;;;;9.10;99.90;;;;;;4952756;28;1241;-63
2022/12/20 07:41:10;;;;;;;;;;;9.10;99.90;;;;;;4952414;29;1217;-63
2022/12/20 07:43:37;;;;;;;;;;;9.10;99.90;;;;;;4952103;29;1127;-63
2022/12/20 07:46:03;;;;;;;;;;;9.10;99.90;;;;;;4956047;28;1111;-63
2022/12/20 07:48:29;;;;;;;;;;;9.10;99.90;;;;;;4956900;28;1266;-63
2022/12/20 07:50:57;;;;;;;;;;;9.10;99.90;;;;;;4954748;28;1334;-63
2022/12/20 07:53:24;;;;;;;;;;;9.10;99.90;;;;;;4949574;28;1270;-63
2022/12/20 07:55:50;;;;;;;;;;;9.10;99.90;;;;;;4969657;28;1163;-63
2022/12/20 07:58:17;;;;;;;;;;;9.10;99.90;;;;;;4971079;28;1978;-63
2022/12/20 08:00:43;;;;;;;;;;;9.20;99.90;;;;;;4971548;28;1095;-63
2022/12/20 08:03:12;;;;;;;;;;;9.10;99.90;;;;;;4945043;29;1346;-64
2022/12/20 08:05:41;;;;;;;;;;;9.20;99.90;;;;;;4951588;29;1159;-64
2022/12/20 08:08:07;;;;;;;;;;;9.20;99.90;;;;;;4953941;28;1131;-64
2022/12/20 08:10:33;;;;;;;;;;;9.20;99.90;;;;;;4952032;28;1138;-64
2022/12/20 08:12:59;;;;;;;;;;;9.20;99.90;;;;;;4951152;28;1176;-64
2022/12/20 08:15:25;;;;;;;;;;;9.20;99.90;;;;;;4952174;28;1183;-64
2022/12/20 08:17:51;;;;;;;;;;;9.20;99.90;;;;;;4950933;29;1915;-64
2022/12/20 08:20:16;;;;;;;;;;;9.30;99.90;;;;;;4951703;28;1270;-64
2022/12/20 08:22:42;;;;;;;;;;;9.30;99.90;;;;;;4952101;29;1116;-64
2022/12/20 08:25:08;;;;;;;;;;;9.40;99.90;;;;;;4951279;29;1104;-64
2022/12/20 08:27:34;;;;;;;;;;;9.40;99.90;;;;;;4951941;29;1104;-64
2022/12/20 08:30:00;;;;;;;;;;;9.60;99.90;;;;;;4957922;28;1175;-64
2022/12/20 08:32:26;;;;;;;;;;;;;;;;;;4969862;28;1170;-64
2022/12/20 08:34:52;;;;;;;;;;;9.60;99.90;;;;;;4965248;28;1059;-64
2022/12/20 08:37:18;;;;;;;;;;;9.60;99.90;;;;;;4951614;29;1980;-64
2022/12/20 08:39:43;;;;;;;;;;;9.60;99.90;;;;;;4956035;28;1167;-64
2022/12/20 08:42:09;;;;;;;;;;;9.70;99.90;;;;;;4958470;28;1143;-64
2022/12/20 08:44:35;;;;;;;;;;;9.70;99.90;;;;;;4951322;29;1092;-64
2022/12/20 08:47:01;;;;;;;;;;;9.70;99.90;;;;;;4949793;28;1242;-64
2022/12/20 08:49:26;;;;;;;;;;;9.60;99.90;;;;;;4951727;28;1124;-64
2022/12/20 08:51:52;;;;;;;;;;;9.60;99.90;;;;;;4951266;28;1326;-64
2022/12/20 08:54:18;;;;;;;;;;;9.60;99.90;;;;;;4951231;28;1262;-64
2022/12/20 08:56:43;;;;;;;;;;;9.70;99.90;;;;;;4950907;28;1973;-65
2022/12/20 08:59:09;;;;;;;;;;;9.70;99.90;;;;;;4969418;28;1150;-64
2022/12/20 09:01:35;;;;;;;;;;;9.70;99.90;;;;;;4965355;28;1182;-64
2022/12/20 09:04:01;;;;;;;;;;;9.70;99.90;;;;;;4951463;29;1434;-64
2022/12/20 09:06:26;;;;;;;;;;;9.70;99.90;;;;;;4962489;28;1353;-64
2022/12/20 09:08:54;;;;;;;;;;;9.70;99.90;;;;;;4969552;28;1119;-64
2022/12/20 09:11:21;;;;;;;;;;;9.70;99.90;;;;;;4970565;28;1111;-64
2022/12/20 09:13:48;;;;;;;;;;;9.70;99.90;;;;;;4964108;28;1143;-64
2022/12/20 09:16:15;;;;;;;;;;;9.80;99.90;;;;;;4950454;29;1987;-64
2022/12/20 09:18:41;;;;;;;;;;;9.80;99.90;;;;;;4956456;28;1120;-64
2022/12/20 09:21:08;;;;;;;;;;;9.90;99.90;;;;;;4946135;29;1171;-64
2022/12/20 09:23:34;;;;;;;;;;;9.80;99.90;;;;;;4956933;28;1111;-64
2022/12/20 09:26:01;;;;;;;;;;;9.90;99.90;;;;;;4970206;28;1119;-64
2022/12/20 09:28:27;;;;;;;;;;;9.90;99.90;;;;;;4938367;29;1231;-64
2022/12/20 09:30:56;;;;;;;;;;;9.90;99.90;;;;;;4950074;28;1400;-64
2022/12/20 09:33:22;;;;;;;;;;;9.90;99.90;;;;;;4969909;28;1155;-65
2022/12/20 09:35:47;;;;;;;;;;;9.90;99.90;;;;;;4969711;28;1084;-64
2022/12/20 09:38:13;;;;;;;;;;;10.00;99.90;;;;;;4959606;28;1977;-64
2022/12/20 09:40:43;;;;;;;;;;;10.00;99.90;;;;;;4950508;28;1128;-64
2022/12/20 09:43:10;;;;;;;;;;;10.00;99.90;;;;;;4949800;29;1226;-64
2022/12/20 09:45:36;;;;;;;;;;;10.10;99.90;;;;;;4952782;28;1191;-65
2022/12/20 09:48:04;;;;;;;;;;;10.10;99.90;;;;;;4954883;28;1286;-64
2022/12/20 09:50:45;;;;;;;;;;;10.00;99.90;;;;;;4967211;28;1157;-65
2022/12/20 09:53:19;;;;;;;;;;;10.10;99.90;;;;;;4936814;29;1292;-65
2022/12/20 09:55:52;;;;;;;;;;;10.10;99.90;;;;;;4954617;29;1092;-64
2022/12/20 09:58:17;;;;;;;;;;;10.10;99.90;;;;;;4936339;29;1918;-65
2022/12/20 10:00:46;;;;;;;;;;;10.10;99.90;;;;;;4971539;28;1159;-65
2022/12/20 10:03:17;;;;;;;;;;;10.10;99.90;;;;;;4967817;28;1354;-64
2022/12/20 10:05:51;;;;;;;;;;;10.10;99.90;;;;;;4954088;29;1125;-65
2022/12/20 10:08:36;;;;;;;;;;;10.10;99.90;;;;;;4966588;28;1169;-65
2022/12/20 10:11:09;;;;;;;;;;;10.10;99.90;;;;;;4947800;29;1151;-65
2022/12/20 10:13:50;;;;;;;;;;;10.10;99.90;;;;;;4936900;29;1351;-65
2022/12/20 10:16:25;;;;;;;;;;;10.10;99.90;;;;;;4953901;28;2007;-65
2022/12/20 10:18:52;;;;;;;;;;;10.20;99.90;;;;;;4936212;29;1105;-65
2022/12/20 10:21:18;;;;;;;;;;;10.10;99.90;;;;;;4939605;29;1940;-65
2022/12/20 10:23:45;;;;;;;;;;;10.10;99.90;;;;;;4944977;29;1167;-65
2022/12/20 10:26:11;;;;;;;;;;;10.10;99.90;;;;;;4950633;28;1239;-65
2022/12/20 10:28:37;;;;;;;;;;;10.10;99.90;;;;;;4973490;28;1327;-65
2022/12/20 10:31:05;;;;;;;;;;;10.10;99.90;;;;;;4972966;28;1131;-65
2022/12/20 10:33:31;;;;;;;;;;;10.10;99.90;;;;;;4968169;28;1187;-65
2022/12/20 10:36:15;;;;;;;;;;;10.00;99.90;;;;;;4955339;28;1246;-65
2022/12/20 10:38:43;;;;;;;;;;;10.00;99.90;;;;;;4950700;29;1478;-65
2022/12/20 10:41:13;;;;;;;;;;;10.00;99.90;;;;;;4936783;28;1104;-65
2022/12/20 10:43:41;;;;;;;;;;;10.00;99.90;;;;;;4941683;29;1312;-65
2022/12/20 10:46:07;;;;;;;;;;;10.00;99.90;;;;;;4957093;28;1158;-65
2022/12/20 10:48:35;;;;;;;;;;;10.00;99.90;;;;;;4973110;28;1131;-65
2022/12/20 10:51:07;;;;;;;;;;;10.00;99.90;;;;;;4967108;28;1278;-65
2022/12/20 10:53:33;;;;;;;;;;;9.90;99.90;;;;;;4939891;29;1612;-65
2022/12/20 10:56:20;;;;;;;;;;;10.00;99.90;;;;;;4953012;28;1172;-65
2022/12/20 10:59:04;;;;;;;;;;;10.00;99.90;;;;;;4953570;29;1159;-65
2022/12/20 11:01:31;;;;;;;;;;;10.10;99.90;;;;;;4962908;28;1133;-65
2022/12/20 11:03:58;;;;;;;;;;;10.10;99.90;;;;;;4961051;28;1290;-65
2022/12/20 11:06:36;;;;;;;;;;;10.20;99.90;;;;;;4953375;29;1088;-65
2022/12/20 11:09:19;;;;;;;;;;;10.10;99.90;;;;;;4958764;28;1175;-65
2022/12/20 11:11:58;;;;;;;;;;;10.10;99.90;;;;;;4962118;28;1063;-65
2022/12/20 11:14:24;;;;;;;;;;;10.10;99.90;;;;;;4952405;29;1119;-65
2022/12/20 11:16:52;;;;;;;;;;;10.20;99.90;;;;;;4953951;28;2049;-65
2022/12/20 11:19:17;;;;;;;;;;;10.10;99.90;;;;;;4952547;29;1289;-65
2022/12/20 11:22:03;;;;;;;;;;;10.10;99.90;;;;;;4968804;28;1226;-65
2022/12/20 11:24:44;;;;;;;;;;;10.00;99.90;;;;;;4960763;28;1167;-66
2022/12/20 11:27:16;;;;;;;;;;;10.00;99.90;;;;;;4954422;28;1204;-66
2022/12/20 11:30:00;;;;;;;;;;;10.00;99.90;;;;;;4951899;28;1278;-66
2022/12/20 11:32:44;;;;;;;;;;;10.00;99.90;;;;;;4952243;29;1227;-66
2022/12/20 11:35:13;;;;;;;;;;;9.90;99.90;;;;;;4934394;29;1168;-66
2022/12/20 11:37:48;;;;;;;;;;;9.80;99.90;;;;;;4960608;28;1918;-66
2022/12/20 11:40:23;;;;;;;;;;;9.70;99.90;;;;;;4952787;29;1135;-66
2022/12/20 11:42:53;;;;;;;;;;;9.70;99.90;;;;;;4951895;29;1127;-66
2022/12/20 11:45:24;;;;;;;;;;;9.70;99.90;;;;;;4951985;28;1067;-66
2022/12/20 11:47:58;;;;;;;;;;;9.60;99.90;;;;;;4952613;29;1100;-65
2022/12/20 11:50:24;;;;;;;;;;;9.50;99.90;;;;;;4952343;28;1231;-66
2022/12/20 11:52:51;;;;;;;;;;;9.40;99.90;;;;;;4952660;28;1310;-66
2022/12/20 11:55:21;;;;;;;;;;;9.40;99.90;;;;;;4952309;28;1246;-66
2022/12/20 11:57:53;;;;;;;;;;;9.30;99.90;;;;;;4949158;29;1907;-66
2022/12/20 12:00:21;;;;;;;;;;;9.20;99.90;;;;;;4953181;28;1301;-66
2022/12/20 12:02:53;;;;;;;;;;;9.30;99.90;;;;;;4938852;29;1242;-66
2022/12/20 12:05:22;;;;;;;;;;;9.30;99.90;;;;;;4954166;28;1301;-65
2022/12/20 12:07:51;;;;;;;;;;;9.40;99.90;;;;;;4951766;28;1107;-66
2022/12/20 12:10:20;;;;;;;;;;;9.30;99.90;;;;;;4937760;28;1171;-66
2022/12/20 12:12:51;;;;;;;;;;;9.30;99.90;;;;;;4962002;28;1250;-66
2022/12/20 12:15:22;;;;;;;;;;;9.30;99.90;;;;;;4971322;28;1175;-66
2022/12/20 12:17:59;;;;;;;;;;;9.40;99.90;;;;;;4957158;28;2007;-66
2022/12/20 12:20:34;;;;;;;;;;;9.40;99.90;;;;;;4958426;28;1153;-66
2022/12/20 12:23:04;;;;;;;;;;;9.30;99.90;;;;;;4951428;28;1254;-66
2022/12/20 12:25:30;;;;;;;;;;;9.30;99.90;;;;;;4950744;29;1057;-65
2022/12/20 12:27:56;;;;;;;;;;;9.30;99.90;;;;;;4954167;28;1282;-66
2022/12/20 12:30:21;;;;;;;;;;;9.30;99.90;;;;;;4955140;28;1226;-65
2022/12/20 12:32:57;;;;;;;;;;;9.30;99.90;;;;;;4943898;28;1002;-66
2022/12/20 12:35:35;;;;;;;;;;;9.30;99.90;;;;;;4951201;29;1192;-66
2022/12/20 12:38:04;;;;;;;;;;;9.20;99.90;;;;;;4952108;28;1927;-66
2022/12/20 12:40:29;;;;;;;;;;;9.20;99.90;;;;;;4951708;29;1107;-66
2022/12/20 12:42:56;;;;;;;;;;;9.30;99.90;;;;;;4951694;29;1198;-66
2022/12/20 12:45:25;;;;;;;;;;;9.20;99.90;;;;;;4950133;28;957;-66
2022/12/20 12:47:53;;;;;;;;;;;9.30;99.90;;;;;;4939464;28;1266;-66
2022/12/20 12:50:23;;;;;;;;;;;9.30;99.90;;;;;;4950015;29;1116;-66
2022/12/20 12:52:50;;;;;;;;;;;9.20;99.90;;;;;;4941545;28;1510;-65
2022/12/20 12:55:45;;;;;;;;;;;9.20;99.90;;;;;;4949040;28;1339;-66
2022/12/20 12:58:21;;;;;;;;;;;9.10;99.90;;;;;;4952446;28;1989;-66
2022/12/20 13:00:48;;;;;;;;;;;9.10;99.90;;;;;;4950532;29;1273;-66
2022/12/20 13:03:15;;;;;;;;;;;9.10;99.90;;;;;;4951111;28;1316;-66
2022/12/20 13:05:41;;;;;;;;;;;9.10;99.90;;;;;;4949054;29;1248;-66
2022/12/20 13:08:16;;;;;;;;;;;9.00;99.90;;;;;;4946864;29;1159;-65
2022/12/20 13:10:41;;;;;;;;;;;9.00;99.90;;;;;;4932810;29;1084;-65
2022/12/20 13:13:19;;;;;;;;;;;8.90;99.90;;;;;;4930807;29;1165;-66
2022/12/20 13:15:46;;;;;;;;;;;8.90;99.90;;;;;;4932179;29;1135;-65
2022/12/20 13:18:11;;;;;;;;;;;8.90;99.90;;;;;;4944201;29;1914;-66
2022/12/20 13:20:38;;;;;;;;;;;8.80;99.90;;;;;;4929006;29;1017;-66
2022/12/20 13:23:06;;;;;;;;;;;8.80;99.90;;;;;;4931744;29;1193;-65
2022/12/20 13:25:32;;;;;;;;;;;8.80;99.90;;;;;;4935603;29;1207;-66
2022/12/20 13:28:15;;;;;;;;;;;8.70;99.90;;;;;;4931571;29;1235;-66
2022/12/20 13:30:41;;;;;;;;;;;8.70;99.90;;;;;;4934227;29;1200;-66
2022/12/20 13:33:19;;;;;;;;;;;8.80;99.90;;;;;;4931999;29;1126;-66
2022/12/20 13:35:54;;;;;;;;;;;8.80;99.90;;;;;;4930663;29;1123;-66
2022/12/20 13:38:29;;;;;;;;;;;8.80;99.90;;;;;;4938069;29;1914;-66
2022/12/20 13:40:59;;;;;;;;;;;8.90;99.90;;;;;;4931105;29;1198;-65
2022/12/20 13:43:27;;;;;;;;;;;8.90;99.90;;;;;;4930699;29;1170;-66
2022/12/20 13:45:55;;;;;;;;;;;8.90;99.90;;;;;;4933513;29;1144;-66
2022/12/20 13:48:24;;;;;;;;;;;8.90;99.90;;;;;;4940689;29;1114;-65
2022/12/20 13:50:52;;;;;;;;;;;8.90;99.90;;;;;;4946062;29;1349;-66
2022/12/20 13:53:18;;;;;;;;;;;8.90;99.90;;;;;;4937988;29;1612;-66
2022/12/20 13:55:45;;;;;;;;;;;8.80;99.90;;;;;;4940334;29;1254;-66
2022/12/20 13:58:12;;;;;;;;;;;8.80;99.90;;;;;;4937345;29;1972;-66
2022/12/20 14:00:38;;;;;;;;;;;8.80;99.90;;;;;;4928805;29;1385;-65
2022/12/20 14:03:06;;;;;;;;;;;8.90;99.90;;;;;;4932053;29;1242;-65
2022/12/20 14:05:33;;;;;;;;;;;8.90;99.90;;;;;;4938607;29;1289;-65
2022/12/20 14:07:59;;;;;;;;;;;8.90;99.90;;;;;;4940209;29;1187;-66
2022/12/20 14:10:26;;;;;;;;;;;8.80;99.90;;;;;;4936674;29;1254;-65
2022/12/20 14:12:52;;;;;;;;;;;8.90;99.90;;;;;;4931334;29;1147;-65
2022/12/20 14:15:20;;;;;;;;;;;8.90;99.90;;;;;;4930997;29;1085;-66
2022/12/20 14:17:45;;;;;;;;;;;8.90;99.90;;;;;;4913889;29;2010;-66
2022/12/20 14:20:14;;;;;;;;;;;9.00;99.90;;;;;;4931332;29;1242;-66
2022/12/20 14:22:43;;;;;;;;;;;9.00;99.90;;;;;;4931176;29;1099;-66
2022/12/20 14:25:12;;;;;;;;;;;9.00;99.90;;;;;;4930769;29;1127;-66
2022/12/20 14:27:38;;;;;;;;;;;9.00;99.90;;;;;;4940426;29;1245;-66
2022/12/20 14:30:04;;;;;;;;;;;9.00;99.90;;;;;;4942185;28;1059;-66
2022/12/20 14:32:30;;;;;;;;;;;9.10;99.90;;;;;;4929172;29;1585;-66
2022/12/20 14:34:56;;;;;;;;;;;9.20;99.90;;;;;;4934163;29;1458;-66
2022/12/20 14:37:23;;;;;;;;;;;9.20;99.90;;;;;;4942835;29;1911;-66
2022/12/20 14:39:54;;;;;;;;;;;9.20;99.90;;;;;;4939696;29;1111;-66
2022/12/20 14:42:20;;;;;;;;;;;9.20;99.90;;;;;;4926567;29;1391;-66
2022/12/20 14:44:46;;;;;;;;;;;9.20;99.90;;;;;;4933840;29;1171;-66
2022/12/20 14:47:23;;;;;;;;;;;9.20;99.90;;;;;;4934669;29;1147;-65
2022/12/20 14:49:53;;;;;;;;;;;9.20;99.90;;;;;;4916982;29;1144;-66
2022/12/20 14:52:22;;;;;;;;;;;9.20;99.90;;;;;;4940655;29;1299;-65
2022/12/20 14:54:53;;;;;;;;;;;9.20;99.90;;;;;;4934590;29;1116;-66
2022/12/20 14:57:25;;;;;;;;;;;9.20;99.90;;;;;;4927574;29;1919;-65
2022/12/20 14:59:57;;;;;;;;;;;9.10;99.90;;;;;;4933537;29;1141;-66